createdAt,value
2023-07-01T00:02:26.284Z,5.40
2023-07-01T00:04:53.378Z,5.15
2023-07-01T00:07:20.532Z,4.90
2023-07-01T00:09:47.518Z,4.82
2023-07-01T00:12:14.597Z,5.00
2023-07-01T00:14:41.532Z,5.20
2023-07-01T00:17:10.891Z,5.25
2023-07-01T00:19:37.881Z,5.57
2023-07-01T00:22:05.581Z,7.63
2023-07-01T00:24:32.595Z,6.82
2023-07-01T00:26:59.567Z,5.32
2023-07-01T00:29:26.608Z,4.82
2023-07-01T00:31:53.685Z,6.75
2023-07-01T00:34:20.846Z,4.90
2023-07-01T00:36:48.187Z,5.03
2023-07-01T00:39:15.191Z,5.43
2023-07-01T00:41:42.294Z,5.38
2023-07-01T00:44:09.267Z,5.55
2023-07-01T00:46:36.607Z,5.45
2023-07-01T00:49:03.719Z,5.03
2023-07-01T00:51:30.786Z,5.00
2023-07-01T00:53:57.793Z,5.32
2023-07-01T00:56:25.227Z,5.40
2023-07-01T00:58:54.458Z,4.50
2023-07-01T01:01:24.695Z,5.75
2023-07-01T01:04:01.359Z,4.57
2023-07-01T01:06:40.766Z,5.07
2023-07-01T01:09:13.656Z,4.35
2023-07-01T01:11:44.798Z,5.80
2023-07-01T01:14:12.876Z,4.80
2023-07-01T01:16:43.136Z,5.22
2023-07-01T01:20:13.813Z,5.88
2023-07-01T01:23:03.114Z,5.00
2023-07-01T01:26:14.396Z,5.65
2023-07-01T01:28:41.448Z,4.73
2023-07-01T01:31:08.463Z,5.72
2023-07-01T01:33:36.918Z,3.80
2023-07-01T01:36:23.213Z,5.00
2023-07-01T01:38:50.210Z,5.47
2023-07-01T01:41:24.684Z,4.57
2023-07-01T01:44:01.869Z,4.80
2023-07-01T01:46:28.861Z,4.78
2023-07-01T01:48:57.473Z,5.70
2023-07-01T01:51:24.506Z,4.70
2023-07-01T01:53:54.589Z,5.32
2023-07-01T01:56:22.007Z,4.93
2023-07-01T01:58:49.001Z,5.32
2023-07-01T02:01:16.574Z,4.28
2023-07-01T02:03:45.120Z,6.10
2023-07-01T02:06:12.570Z,5.03
2023-07-01T02:08:39.527Z,5.05
2023-07-01T02:11:06.515Z,4.70
2023-07-01T02:13:34.421Z,5.47
2023-07-01T02:16:01.380Z,4.45
2023-07-01T02:18:28.348Z,5.47
2023-07-01T02:20:55.388Z,4.75
2023-07-01T02:23:22.453Z,4.80
2023-07-01T02:25:49.573Z,4.00
2023-07-01T02:28:16.889Z,4.85
2023-07-01T02:30:44.981Z,4.82
2023-07-01T02:33:13.155Z,5.07
2023-07-01T02:35:40.235Z,4.43
2023-07-01T02:38:08.874Z,4.10
2023-07-01T02:40:35.863Z,5.78
2023-07-01T02:43:03.414Z,4.15
2023-07-01T02:45:30.543Z,5.15
2023-07-01T02:47:57.635Z,3.78
2023-07-01T02:50:24.664Z,4.22
2023-07-01T02:52:51.615Z,3.70
2023-07-01T02:55:18.720Z,4.05
2023-07-01T02:57:45.750Z,4.50
2023-07-01T03:00:15.298Z,3.92
2023-07-01T03:02:42.533Z,4.45
2023-07-01T03:05:10.537Z,4.38
2023-07-01T03:07:37.726Z,4.35
2023-07-01T03:10:05.238Z,4.68
2023-07-01T03:12:32.244Z,4.55
2023-07-01T03:14:59.185Z,4.50
2023-07-01T03:17:26.422Z,4.97
2023-07-01T03:19:53.681Z,4.85
2023-07-01T03:22:20.673Z,4.70
2023-07-01T03:24:47.918Z,4.38
2023-07-01T03:27:14.902Z,3.88
2023-07-01T03:29:42.613Z,4.70
2023-07-01T03:32:09.986Z,3.97
2023-07-01T03:34:39.186Z,4.00
2023-07-01T03:37:06.987Z,3.97
2023-07-01T03:39:34.070Z,3.97
2023-07-01T03:42:01.039Z,4.35
2023-07-01T03:44:27.974Z,4.22
2023-07-01T03:46:54.965Z,4.85
2023-07-01T03:49:21.919Z,5.20
2023-07-01T03:51:48.883Z,4.15
2023-07-01T03:54:15.794Z,5.03
2023-07-01T03:56:42.779Z,4.32
2023-07-01T03:59:09.774Z,4.43
2023-07-01T04:01:37.595Z,4.78
2023-07-01T04:04:04.929Z,5.50
2023-07-01T04:06:32.193Z,5.10
2023-07-01T04:09:00.022Z,4.13
2023-07-01T04:11:27.295Z,4.65
2023-07-01T04:13:54.307Z,4.35
2023-07-01T04:16:21.440Z,3.83
2023-07-01T04:18:48.493Z,3.55
2023-07-01T04:21:15.546Z,4.70
2023-07-01T04:23:42.557Z,3.97
2023-07-01T04:26:09.546Z,4.50
2023-07-01T04:28:36.493Z,5.72
2023-07-01T04:31:03.527Z,6.05
2023-07-01T04:33:30.581Z,5.93
2023-07-01T04:35:57.636Z,4.75
2023-07-01T04:38:24.689Z,5.30
2023-07-01T04:40:53.626Z,6.25
2023-07-01T04:43:21.740Z,6.75
2023-07-01T04:45:48.708Z,8.05
2023-07-01T04:48:15.735Z,5.57
2023-07-01T04:50:42.785Z,6.65
2023-07-01T04:53:09.883Z,6.35
2023-07-01T04:55:37.175Z,6.53
2023-07-01T04:58:04.118Z,6.43
2023-07-01T05:00:31.219Z,5.25
2023-07-01T05:02:58.376Z,7.25
2023-07-01T05:05:26.828Z,8.07
2023-07-01T05:07:54.025Z,7.15
2023-07-01T05:10:21.135Z,6.50
2023-07-01T05:12:48.067Z,7.65
2023-07-01T05:15:15.181Z,8.57
2023-07-01T05:17:42.809Z,7.50
2023-07-01T05:20:10.840Z,6.80
2023-07-01T05:22:37.942Z,7.40
2023-07-01T05:25:05.430Z,7.68
2023-07-01T05:27:32.412Z,8.15
2023-07-01T05:29:59.522Z,8.43
2023-07-01T05:32:26.929Z,7.25
2023-07-01T05:34:54.001Z,6.53
2023-07-01T05:37:20.949Z,7.53
2023-07-01T05:39:48.678Z,8.55
2023-07-01T05:42:15.674Z,9.55
2023-07-01T05:44:42.642Z,8.38
2023-07-01T05:47:09.564Z,8.15
2023-07-01T05:49:36.558Z,7.63
2023-07-01T05:52:03.870Z,8.43
2023-07-01T05:54:30.874Z,8.32
2023-07-01T05:56:57.865Z,6.55
2023-07-01T05:59:25.017Z,10.18
2023-07-01T06:01:52.265Z,8.25
2023-07-01T06:04:19.543Z,8.27
2023-07-01T06:06:46.661Z,9.20
2023-07-01T06:09:17.313Z,8.45
2023-07-01T06:11:44.465Z,8.93
2023-07-01T06:14:11.740Z,8.27
2023-07-01T06:16:38.893Z,7.47
2023-07-01T06:19:06.468Z,7.50
2023-07-01T06:21:33.601Z,5.18
2023-07-01T06:24:00.600Z,6.13
2023-07-01T06:26:27.708Z,4.57
2023-07-01T06:28:54.705Z,4.63
2023-07-01T06:31:21.952Z,3.78
2023-07-01T06:33:49.480Z,4.40
2023-07-01T06:36:18.643Z,4.70
2023-07-01T06:38:48.091Z,4.15
2023-07-01T06:41:15.135Z,3.65
2023-07-01T06:43:42.154Z,4.53
2023-07-01T06:46:09.276Z,4.28
2023-07-01T06:48:36.331Z,4.43
2023-07-01T06:51:04.981Z,4.60
2023-07-01T06:53:32.246Z,4.80
2023-07-01T06:55:59.224Z,6.05
2023-07-01T06:58:26.278Z,7.82
2023-07-01T07:00:53.291Z,8.20
2023-07-01T07:03:20.851Z,5.10
2023-07-01T07:05:48.061Z,5.50
2023-07-01T07:08:15.063Z,4.60
2023-07-01T07:10:42.058Z,8.70
2023-07-01T07:13:09.028Z,6.00
2023-07-01T07:15:36.024Z,5.18
2023-07-01T07:18:03.407Z,4.97
2023-07-01T07:20:30.508Z,4.95
2023-07-01T07:22:57.508Z,5.78
2023-07-01T07:25:24.552Z,5.68
2023-07-01T07:27:51.504Z,16.05
2023-07-01T07:30:18.518Z,9.48
2023-07-01T07:32:45.734Z,6.25
2023-07-01T07:35:12.830Z,10.90
2023-07-01T07:37:40.106Z,7.93
2023-07-01T07:40:08.594Z,6.75
2023-07-01T07:42:36.302Z,7.85
2023-07-01T07:45:04.304Z,5.53
2023-07-01T07:47:31.789Z,6.28
2023-07-01T07:49:58.918Z,5.72
2023-07-01T07:52:26.039Z,4.38
2023-07-01T07:54:53.117Z,4.70
2023-07-01T07:57:20.183Z,3.85
2023-07-01T07:59:47.170Z,4.30
2023-07-01T08:02:14.176Z,5.35
2023-07-01T08:04:41.227Z,4.97
2023-07-01T08:07:09.076Z,5.57
2023-07-01T08:09:37.024Z,5.22
2023-07-01T08:12:04.384Z,4.57
2023-07-01T08:14:31.883Z,4.40
2023-07-01T08:17:00.091Z,4.25
2023-07-01T08:19:27.444Z,5.38
2023-07-01T08:21:55.510Z,3.92
2023-07-01T08:24:25.346Z,4.47
2023-07-01T08:26:52.826Z,4.07
2023-07-01T08:29:20.944Z,5.05
2023-07-01T08:31:48.017Z,4.00
2023-07-01T08:34:14.974Z,3.83
2023-07-01T08:36:42.030Z,3.90
2023-07-01T08:39:09.330Z,3.80
2023-07-01T08:41:42.849Z,3.72
2023-07-01T08:44:09.985Z,3.47
2023-07-01T08:46:37.391Z,3.97
2023-07-01T08:49:04.393Z,3.78
2023-07-01T08:51:38.856Z,4.30
2023-07-01T08:54:05.895Z,3.97
2023-07-01T08:56:32.951Z,4.45
2023-07-01T08:58:59.940Z,10.73
2023-07-01T09:01:27.239Z,5.13
2023-07-01T09:03:55.214Z,5.40
2023-07-01T09:06:22.245Z,3.80
2023-07-01T09:08:49.256Z,4.72
2023-07-01T09:11:17.094Z,4.30
2023-07-01T09:13:44.253Z,5.72
2023-07-01T09:16:11.287Z,5.20
2023-07-01T09:18:42.236Z,4.40
2023-07-01T09:21:29.057Z,4.82
2023-07-01T09:23:57.355Z,4.40
2023-07-01T09:26:24.304Z,3.92
2023-07-01T09:28:51.494Z,3.47
2023-07-01T09:31:19.154Z,4.40
2023-07-01T09:34:02.085Z,4.10
2023-07-01T09:36:30.182Z,4.13
2023-07-01T09:38:57.251Z,4.28
2023-07-01T09:41:28.474Z,7.45
2023-07-01T09:46:23.749Z,5.97
2023-07-01T09:48:55.234Z,5.85
2023-07-01T09:51:28.633Z,5.15
2023-07-01T09:53:55.773Z,6.88
2023-07-01T09:56:22.873Z,3.90
2023-07-01T09:58:51.116Z,5.20
2023-07-01T10:01:18.980Z,4.40
2023-07-01T10:03:46.136Z,3.75
2023-07-01T10:06:13.785Z,4.43
2023-07-01T10:08:43.207Z,3.95
2023-07-01T10:11:10.208Z,4.55
2023-07-01T10:13:49.045Z,5.38
2023-07-01T10:16:16.087Z,6.30
2023-07-01T10:18:43.134Z,4.75
2023-07-01T10:21:25.796Z,4.70
2023-07-01T10:23:53.148Z,4.80
2023-07-01T10:26:40.834Z,3.83
2023-07-01T10:29:29.852Z,4.55
2023-07-01T10:32:15.059Z,4.28
2023-07-01T10:34:54.213Z,5.22
2023-07-01T10:37:25.249Z,4.15
2023-07-01T10:39:52.915Z,4.68
2023-07-01T10:42:33.065Z,4.30
2023-07-01T10:45:12.554Z,3.85
2023-07-01T10:47:46.078Z,4.45
2023-07-01T10:50:14.521Z,4.72
2023-07-01T10:52:59.792Z,4.63
2023-07-01T10:55:41.635Z,5.05
2023-07-01T10:58:16.285Z,3.72
2023-07-01T11:00:43.685Z,5.00
2023-07-01T11:03:36.366Z,4.45
2023-07-01T11:06:05.479Z,4.88
2023-07-01T11:08:34.429Z,5.38
2023-07-01T11:11:01.477Z,6.97
2023-07-01T11:13:28.582Z,6.30
2023-07-01T11:16:05.671Z,6.40
2023-07-01T11:18:46.242Z,5.50
2023-07-01T11:21:15.067Z,5.60
2023-07-01T11:23:42.917Z,6.82
2023-07-01T11:26:10.399Z,6.20
2023-07-01T11:28:38.152Z,6.85
2023-07-01T11:31:18.762Z,5.10
2023-07-01T11:33:53.799Z,5.10
2023-07-01T11:36:22.185Z,4.47
2023-07-01T11:38:49.922Z,4.68
2023-07-01T11:41:22.238Z,4.03
2023-07-01T11:43:49.221Z,3.75
2023-07-01T11:46:16.519Z,6.13
2023-07-01T11:48:43.590Z,4.70
2023-07-01T11:51:10.657Z,4.07
2023-07-01T11:53:57.763Z,5.20
2023-07-01T11:56:24.698Z,4.68
2023-07-01T11:59:01.080Z,6.13
2023-07-01T12:01:29.634Z,5.00
2023-07-01T12:03:56.920Z,4.43
2023-07-01T12:06:25.619Z,4.30
2023-07-01T12:09:07.530Z,5.95
2023-07-01T12:11:44.402Z,5.18
2023-07-01T12:14:20.957Z,5.22
2023-07-01T12:16:50.831Z,5.53
2023-07-01T12:19:21.972Z,5.45
2023-07-01T12:21:49.845Z,5.47
2023-07-01T12:24:24.537Z,5.15
2023-07-01T12:26:53.072Z,4.57
2023-07-01T12:29:20.341Z,5.32
2023-07-01T12:31:47.558Z,5.10
2023-07-01T12:34:15.367Z,5.15
2023-07-01T12:36:44.196Z,5.03
2023-07-01T12:39:11.405Z,5.32
2023-07-01T12:41:38.480Z,5.28
2023-07-01T12:44:09.621Z,5.68
2023-07-01T12:46:40.349Z,4.40
2023-07-01T12:49:07.482Z,6.18
2023-07-01T12:51:38.108Z,4.95
2023-07-01T12:54:17.681Z,5.57
2023-07-01T12:56:45.575Z,4.90
2023-07-01T12:59:12.748Z,5.00
2023-07-01T13:01:40.193Z,5.60
2023-07-01T13:04:07.715Z,4.82
2023-07-01T13:06:39.462Z,5.68
2023-07-01T13:09:08.306Z,5.32
2023-07-01T13:11:37.923Z,6.07
2023-07-01T13:14:15.190Z,5.28
2023-07-01T13:16:43.382Z,5.75
2023-07-01T13:19:14.608Z,5.90
2023-07-01T13:21:42.554Z,5.07
2023-07-01T13:24:11.340Z,5.80
2023-07-01T13:26:38.950Z,6.55
2023-07-01T13:29:09.641Z,6.90
2023-07-01T13:31:36.640Z,5.87
2023-07-01T13:34:07.056Z,6.82
2023-07-01T13:36:38.486Z,6.80
2023-07-01T13:41:32.703Z,5.55
2023-07-01T13:44:12.956Z,5.93
2023-07-01T13:46:42.113Z,6.28
2023-07-01T13:49:09.880Z,9.05
2023-07-01T13:51:37.885Z,6.28
2023-07-01T13:54:07.501Z,6.45
2023-07-01T13:56:35.782Z,6.03
2023-07-01T13:59:04.406Z,9.65
2023-07-01T14:01:32.373Z,7.43
2023-07-01T14:04:02.873Z,5.25
2023-07-01T14:06:29.976Z,5.70
2023-07-01T14:09:00.295Z,6.30
2023-07-01T14:11:29.430Z,6.65
2023-07-01T14:13:58.493Z,5.57
2023-07-01T14:16:26.552Z,6.43
2023-07-01T14:18:53.653Z,5.97
2023-07-01T14:21:21.055Z,5.13
2023-07-01T14:23:55.304Z,5.15
2023-07-01T14:26:27.136Z,6.07
2023-07-01T14:31:28.251Z,5.80
2023-07-01T14:33:57.004Z,5.63
2023-07-01T14:36:28.375Z,6.30
2023-07-01T14:41:27.506Z,5.70
2023-07-01T14:44:01.964Z,5.85
2023-07-01T14:46:31.059Z,6.55
2023-07-01T14:48:58.234Z,6.47
2023-07-01T14:51:25.763Z,6.38
2023-07-01T14:53:53.165Z,6.30
2023-07-01T14:56:21.482Z,6.68
2023-07-01T14:58:48.782Z,5.38
2023-07-01T15:01:20.345Z,5.68
2023-07-01T15:03:47.779Z,5.55
2023-07-01T15:06:15.029Z,5.60
2023-07-01T15:08:44.089Z,5.97
2023-07-01T15:11:11.548Z,5.82
2023-07-01T15:13:39.332Z,5.45
2023-07-01T15:16:07.237Z,5.57
2023-07-01T15:18:35.270Z,5.78
2023-07-01T15:21:03.500Z,6.00
2023-07-01T15:23:30.733Z,8.48
2023-07-01T15:25:57.736Z,6.97
2023-07-01T15:28:24.772Z,6.32
2023-07-01T15:30:51.848Z,5.95
2023-07-01T15:33:22.157Z,5.85
2023-07-01T15:35:50.482Z,6.10
2023-07-01T15:38:17.866Z,6.32
2023-07-01T15:40:45.298Z,6.47
2023-07-01T15:43:12.434Z,7.00
2023-07-01T15:45:39.407Z,7.75
2023-07-01T15:48:06.653Z,7.65
2023-07-01T15:50:34.149Z,7.93
2023-07-01T15:53:01.231Z,6.28
2023-07-01T15:55:28.300Z,6.10
2023-07-01T15:57:55.353Z,7.20
2023-07-01T16:00:22.474Z,7.75
2023-07-01T16:02:49.697Z,7.97
2023-07-01T16:05:23.667Z,8.10
2023-07-01T16:07:56.800Z,6.90
2023-07-01T16:10:23.969Z,7.65
2023-07-01T16:12:51.424Z,6.38
2023-07-01T16:15:20.345Z,10.65
2023-07-01T16:17:54.564Z,7.65
2023-07-01T16:20:34.533Z,6.68
2023-07-01T16:23:11.141Z,7.05
2023-07-01T16:25:39.114Z,7.40
2023-07-01T16:28:06.736Z,7.35
2023-07-01T16:30:39.532Z,8.45
2023-07-01T16:33:07.195Z,8.73
2023-07-01T16:35:45.629Z,9.35
2023-07-01T16:38:31.452Z,8.02
2023-07-01T16:41:01.260Z,8.68
2023-07-01T16:43:41.872Z,9.93
2023-07-01T16:46:09.660Z,9.70
2023-07-01T16:48:47.687Z,8.35
2023-07-01T16:51:15.764Z,8.35
2023-07-01T16:53:44.187Z,8.45
2023-07-01T16:56:12.498Z,9.55
2023-07-01T16:58:46.178Z,11.80
2023-07-01T17:01:24.341Z,9.75
2023-07-01T17:03:51.540Z,10.20
2023-07-01T17:06:39.438Z,9.18
2023-07-01T17:09:07.283Z,10.02
2023-07-01T17:11:47.121Z,10.55
2023-07-01T17:14:33.734Z,12.73
2023-07-01T17:17:01.157Z,10.85
2023-07-01T17:19:29.862Z,10.88
2023-07-01T17:21:56.952Z,12.85
2023-07-01T17:24:24.051Z,10.57
2023-07-01T17:26:51.300Z,10.85
2023-07-01T17:29:18.414Z,12.82
2023-07-01T17:31:45.626Z,11.88
2023-07-01T17:34:12.797Z,12.05
2023-07-01T17:36:40.497Z,11.88
2023-07-01T17:39:10.707Z,11.10
2023-07-01T17:41:37.999Z,12.38
2023-07-01T17:44:05.235Z,11.98
2023-07-01T17:46:32.542Z,11.10
2023-07-01T17:49:02.809Z,12.23
2023-07-01T17:51:31.347Z,11.85
2023-07-01T17:53:58.341Z,10.00
2023-07-01T17:56:25.498Z,9.10
2023-07-01T17:58:52.998Z,9.98
2023-07-01T18:01:20.295Z,10.73
2023-07-01T18:03:47.783Z,10.15
2023-07-01T18:06:15.102Z,10.35
2023-07-01T18:08:42.264Z,10.55
2023-07-01T18:11:10.276Z,13.18
2023-07-01T18:13:37.350Z,11.50
2023-07-01T18:16:04.790Z,10.35
2023-07-01T18:18:32.060Z,9.00
2023-07-01T18:20:59.174Z,9.52
2023-07-01T18:23:28.754Z,9.27
2023-07-01T18:25:55.724Z,9.20
2023-07-01T18:28:22.841Z,10.88
2023-07-01T18:30:50.388Z,11.13
2023-07-01T18:33:17.411Z,11.32
2023-07-01T18:35:44.463Z,10.23
2023-07-01T18:38:11.490Z,11.35
2023-07-01T18:40:38.550Z,15.82
2023-07-01T18:43:05.558Z,14.98
2023-07-01T18:45:32.603Z,13.75
2023-07-01T18:47:59.677Z,9.85
2023-07-01T18:50:26.776Z,9.88
2023-07-01T18:52:53.811Z,12.23
2023-07-01T18:55:20.909Z,12.00
2023-07-01T18:57:48.119Z,16.67
2023-07-01T19:00:15.912Z,16.38
2023-07-01T19:02:43.204Z,16.77
2023-07-01T19:05:10.490Z,17.55
2023-07-01T19:07:37.559Z,17.35
2023-07-01T19:10:05.947Z,23.52
2023-07-01T19:12:33.848Z,18.38
2023-07-01T19:15:01.604Z,18.60
2023-07-01T19:17:28.685Z,21.75
2023-07-01T19:19:55.726Z,27.67
2023-07-01T19:22:24.326Z,25.42
2023-07-01T19:24:52.071Z,22.15
2023-07-01T19:27:20.334Z,21.98
2023-07-01T19:29:53.205Z,23.52
2023-07-01T19:32:26.541Z,24.17
2023-07-01T19:34:53.997Z,25.75
2023-07-01T19:37:21.080Z,23.70
2023-07-01T19:39:47.999Z,23.13
2023-07-01T19:42:15.171Z,22.23
2023-07-01T19:44:46.157Z,23.58
2023-07-01T19:47:13.293Z,23.17
2023-07-01T19:49:40.323Z,21.88
2023-07-01T19:52:07.347Z,24.80
2023-07-01T19:54:35.937Z,21.55
2023-07-01T19:57:03.025Z,23.23
2023-07-01T19:59:30.036Z,26.55
2023-07-01T20:01:57.528Z,22.42
2023-07-01T20:04:25.052Z,22.27
2023-07-01T20:06:52.593Z,18.55
2023-07-01T20:09:19.710Z,20.23
2023-07-01T20:11:46.780Z,17.23
2023-07-01T20:14:13.960Z,18.08
2023-07-01T20:16:42.939Z,18.33
2023-07-01T20:19:10.874Z,20.60
2023-07-01T20:21:38.050Z,17.42
2023-07-01T20:24:05.677Z,17.67
2023-07-01T20:26:32.628Z,17.40
2023-07-01T20:28:59.602Z,18.40
2023-07-01T20:31:26.802Z,18.88
2023-07-01T20:33:54.028Z,20.42
2023-07-01T20:36:21.107Z,19.58
2023-07-01T20:38:48.112Z,20.15
2023-07-01T20:41:15.801Z,21.17
2023-07-01T20:43:42.906Z,19.85
2023-07-01T20:46:11.735Z,19.08
2023-07-01T20:48:38.778Z,17.85
2023-07-01T20:51:05.802Z,18.55
2023-07-01T20:53:32.813Z,19.23
2023-07-01T20:55:59.862Z,18.85
2023-07-01T20:58:27.015Z,17.45
2023-07-01T21:00:54.172Z,19.02
2023-07-01T21:03:21.264Z,19.98
2023-07-01T21:05:48.808Z,20.58
2023-07-01T21:08:16.322Z,17.58
2023-07-01T21:10:43.401Z,16.35
2023-07-01T21:13:10.587Z,19.73
2023-07-01T21:15:37.596Z,17.80
2023-07-01T21:18:04.847Z,18.52
2023-07-01T21:20:33.587Z,20.35
2023-07-01T21:23:00.746Z,19.40
2023-07-01T21:25:29.836Z,18.48
2023-07-01T21:27:58.942Z,19.98
2023-07-01T21:30:28.506Z,18.90
2023-07-01T21:32:55.609Z,17.30
2023-07-01T21:35:30.379Z,19.00
2023-07-01T21:37:57.658Z,16.85
2023-07-01T21:40:46.861Z,18.83
2023-07-01T21:43:20.145Z,20.95
2023-07-01T21:45:47.830Z,22.08
2023-07-01T21:48:15.738Z,19.65
2023-07-01T21:50:59.554Z,19.80
2023-07-01T21:53:41.487Z,20.95
2023-07-01T21:56:10.256Z,19.58
2023-07-01T21:58:47.595Z,18.77
2023-07-01T22:01:23.670Z,20.38
2023-07-01T22:03:50.881Z,18.67
2023-07-01T22:06:17.922Z,20.85
2023-07-01T22:08:45.502Z,19.40
2023-07-01T22:11:13.032Z,20.92
2023-07-01T22:13:40.810Z,19.45
2023-07-01T22:16:09.449Z,18.90
2023-07-01T22:18:37.147Z,18.83
2023-07-01T22:21:05.005Z,19.50
2023-07-01T22:23:32.580Z,18.67
2023-07-01T22:25:59.830Z,19.83
2023-07-01T22:28:27.108Z,20.10
2023-07-01T22:30:54.128Z,17.83
2023-07-01T22:33:21.182Z,22.58
2023-07-01T22:35:48.294Z,23.88
2023-07-01T22:38:15.383Z,21.70
2023-07-01T22:40:42.328Z,22.58
2023-07-01T22:43:09.385Z,24.75
2023-07-01T22:45:36.494Z,28.27
2023-07-01T22:48:03.721Z,24.02
2023-07-01T22:50:30.890Z,24.60
2023-07-01T22:52:58.288Z,23.80
2023-07-01T22:55:25.337Z,27.05
2023-07-01T22:57:52.361Z,28.52
2023-07-01T23:00:19.796Z,28.27
2023-07-01T23:02:46.943Z,29.08
2023-07-01T23:05:14.453Z,26.45
2023-07-01T23:07:41.826Z,29.48
2023-07-01T23:10:09.148Z,30.02
2023-07-01T23:12:36.521Z,28.73
2023-07-01T23:15:05.158Z,29.98
2023-07-01T23:17:32.989Z,31.83
2023-07-01T23:20:05.350Z,30.52
2023-07-01T23:22:38.213Z,31.63
2023-07-01T23:25:08.843Z,28.75
2023-07-01T23:27:55.255Z,27.75
2023-07-01T23:30:22.434Z,29.30
2023-07-01T23:32:54.733Z,28.80
2023-07-01T23:35:22.732Z,33.17
2023-07-01T23:37:50.374Z,32.92
2023-07-01T23:40:17.632Z,31.17
2023-07-01T23:42:44.940Z,30.90
2023-07-01T23:45:16.321Z,32.95
2023-07-01T23:47:44.392Z,32.95
2023-07-01T23:50:11.881Z,36.95
2023-07-01T23:52:38.871Z,30.48
2023-07-01T23:55:06.367Z,32.22
2023-07-01T23:57:33.639Z,31.13
